Date,TemperatureHighF,TemperatureAvgF,TemperatureLowF,DewpointHighF,DewpointAvgF,DewpointLowF,HumidityHigh,HumidityAvg,HumidityLow,PressureMaxIn,PressureMinIn,WindSpeedMaxMPH,WindSpeedAvgMPH,GustSpeedMaxMPH,PrecipitationSumIn
2013-1-1,69.8,61.5,50.4,68.6,57.8,44.5,99,88,75,30.09,29.75,9,5,0,0.08
2013-1-2,50.2,43.6,40.8,44.4,40.1,37.8,97,88,72,30.23,30.06,11,4,0,0.35
2013-1-3,51.3,46.3,42.4,38.8,36.1,32.1,87,68,50,30.30,30.19,10,4,0,0.00
2013-1-4,51.1,48.2,44.6,43.3,39.2,36.1,95,71,65,30.34,30.23,12,5,0,0.01
2013-1-5,50.9,47.8,45.3,46.2,42.9,38.9,92,83,70,30.26,30.14,9,4,0,0.00
2013-1-6,62.8,51.5,44.1,47.2,45.2,42.6,98,80,52,30.26,30.14,7,3,0,0.00
2013-1-7,61.0,52.5,40.6,56.0,49.5,39.3,99,90,72,30.22,29.90,9,3,0,0.01
2013-1-8,69.1,63.1,55.9,68.0,62.4,55.6,99,98,92,29.89,29.63,21,5,0,0.10
2013-1-9,68.9,63.1,55.6,68.6,62.1,55.3,99,97,85,29.95,29.70,11,3,0,1.40
2013-1-10,68.5,58.3,52.0,56.0,52.3,49.3,99,83,54,30.03,29.90,9,3,0,0.00
2013-1-11,76.3,65.2,50.7,70.7,63.5,50.4,99,94,80,29.95,29.69,11,3,0,0.00
2013-1-12,77.4,72.0,69.4,72.6,70.9,69.1,99,96,84,29.75,29.51,12,6,0,0.00
2013-1-13,72.0,55.9,46.9,71.7,46.4,37.6,99,72,47,30.01,29.59,16,7,0,0.00
2013-1-14,50.4,45.8,42.6,44.8,40.3,36.3,99,82,64,30.10,29.98,10,4,0,0.00
2013-1-15,45.3,43.5,41.7,45.0,41.9,36.9,99,94,81,30.15,29.95,12,6,0,0.20
2013-1-16,58.6,45.5,34.2,37.3,26.5,16.5,82,51,19,30.28,30.11,12,5,0,0.00
2013-1-17,66.7,48.6,33.3,43.3,34.1,24.6,98,61,34,30.38,30.23,8,2,0,0.00
2013-1-18,66.4,51.6,38.7,50.8,45.4,38.4,99,82,53,30.41,30.22,7,2,0,0.00
2013-1-19,71.8,58.1,44.2,58.4,50.7,43.9,99,80,48,30.22,30.04,11,2,0,0.00
2013-1-20,74.5,59.5,45.3,59.6,53.4,45.0,99,82,54,30.14,29.98,10,2,0,0.00
2013-1-21,73.0,60.0,50.4,60.8,54.8,50.1,99,85,50,30.13,30.01,8,2,0,0.00
2013-1-22,73.0,59.8,47.1,61.0,54.6,46.8,99,85,54,30.19,30.07,8,2,0,0.00
2013-1-23,77.2,65.4,53.8,67.4,61.4,53.5,99,88,67,30.22,30.10,9,3,0,0.00
2013-1-24,81.0,68.0,60.1,66.8,63.8,59.8,99,88,60,30.18,30.00,9,4,0,0.00
2013-1-25,80.2,68.8,61.0,68.1,64.9,60.7,99,88,65,30.08,29.91,11,4,0,0.00
2013-1-26,78.8,69.2,63.3,66.8,64.3,63.0,99,86,63,30.03,29.91,14,5,0,0.00
2013-1-27,77.2,70.4,64.8,72.0,68.5,63.4,99,94,83,30.00,29.84,13,6,0,0.00
2013-1-28,78.3,71.9,69.1,72.0,70.1,68.8,99,94,81,29.96,29.77,14,6,0,0.00
2013-1-29,83.1,73.7,69.3,72.2,68.3,43.8,99,85,38,29.81,29.45,12,6,0,0.00
2013-1-30,70.2,62.6,54.1,43.9,23.7,10.1,40,24,10,30.16,29.64,22,8,0,0.01
2013-1-31,71.1,55.4,35.8,49.7,33.8,20.3,84,48,16,30.24,30.11,16,3,0,0.00
2013-2-1,73.6,61.4,48.2,57.0,50.6,45.8,99,72,40,30.24,30.10,14,3,0,0.00
2013-2-2,77.7,65.2,55.2,61.7,58.7,54.4,99,81,56,30.16,30.03,9,3,0,0.00
2013-2-3,74.5,63.8,53.2,63.9,59.3,52.9,99,87,60,30.19,29.92,10,4,0,0.00
2013-2-4,80.1,69.1,61.3,67.3,64.2,59.6,98,85,65,29.93,29.66,12,4,0,0.00
2013-2-5,85.3,70.5,61.0,70.1,66.4,60.7,99,89,52,29.85,29.72,11,4,0,0.00
2013-2-6,73.2,67.6,63.5,72.3,66.7,62.6,99,97,86,29.91,29.69,10,4,0,0.34
2013-2-7,79.0,68.5,62.6,70.0,66.3,62.3,99,93,74,29.90,29.76,5,2,0,0.00
2013-2-8,73.8,63.8,57.9,63.2,56.5,51.0,99,79,46,30.08,29.89,10,4,0,0.00
2013-2-9,74.7,68.5,61.0,70.6,66.4,59.5,98,93,85,29.96,29.67,14,6,0,0.01
2013-2-10,85.1,72.3,66.7,72.6,64.6,52.5,99,78,55,29.83,29.62,9,5,0,0.00
2013-2-11,66.6,62.7,58.5,61.9,58.6,54.1,99,87,68,29.87,29.75,9,5,0,0.01
2013-2-12,71.2,62.4,58.1,62.5,59.3,57.7,99,90,67,29.88,29.69,9,4,0,0.03
2013-2-13,64.9,57.1,47.7,59.4,46.6,41.0,98,70,43,30.07,29.87,11,4,0,0.00
2013-2-14,71.8,56.4,40.1,51.7,43.5,34.7,99,68,26,30.04,29.92,8,3,0,0.00
2013-2-15,72.7,60.4,46.8,57.1,50.2,40.6,99,71,41,30.21,29.95,12,3,0,0.00
2013-2-16,68.0,55.8,45.5,44.3,33.4,27.8,69,45,24,30.38,30.18,12,5,0,0.00
2013-2-17,72.1,66.2,39.2,59.0,52.9,37.6,94,64,44,30.13,29.90,12,6,0,0.00
2013-2-18,81.0,70.3,65.7,68.1,63.7,59.0,92,80,65,29.92,29.71,10,5,0,0.00
2013-2-19,69.6,64.2,61.3,63.7,53.2,45.7,99,68,54,30.09,29.91,12,7,0,0.00
2013-2-20,73.9,69.2,63.3,69.4,66.0,57.6,96,89,80,29.93,29.57,17,7,0,0.00
2013-2-21,83.5,74.0,67.3,71.4,64.7,51.7,97,75,48,29.72,29.48,14,5,0,0.00
2013-2-22,72.3,66.7,60.3,58.2,51.3,43.6,82,60,37,29.85,29.68,12,5,0,0.00
2013-2-23,75.9,61.1,52.7,56.2,48.6,42.5,98,65,42,29.92,29.74,9,4,0,0.00
2013-2-24,69.3,61.5,48.9,66.6,60.3,48.6,99,96,82,29.82,29.50,6,2,0,0.00
2013-2-25,75.0,67.4,55.4,68.5,39.8,14.1,99,49,10,29.78,29.42,22,9,0,0.16
2013-2-26,77.5,59.5,40.1,51.1,33.8,20.9,90,44,12,29.92,29.73,10,3,0,0.00
2013-2-27,79.5,62.2,47.1,60.7,44.2,28.5,99,60,16,30.10,29.78,9,4,0,0.00
2013-2-28,64.2,55.3,46.8,37.2,29.6,24.5,57,39,24,30.22,30.07,12,5,0,0.00
2013-3-1,75.2,57.5,40.5,47.2,33.2,24.5,81,43,19,30.20,30.02,12,2,0,0.00
2013-3-2,68.7,57.2,46.8,47.2,34.8,26.2,89,48,21,30.32,30.14,15,5,0,0.00
2013-3-3,75.2,58.7,38.5,54.2,44.2,31.7,82,61,35,30.19,29.91,10,4,0,0.00
2013-3-4,86.0,69.7,60.1,63.4,59.1,54.2,91,72,40,29.91,29.62,13,7,0,0.00
2013-3-5,73.8,64.7,56.8,64.1,44.9,24.2,98,56,21,30.22,29.69,16,7,0,0.00
2013-3-6,66.2,55.5,46.0,48.3,37.7,27.5,92,53,33,30.33,30.13,10,4,0,0.00
2013-3-7,75.9,62.8,48.0,63.0,57.2,46.7,99,83,60,30.14,29.98,14,5,0,0.00
2013-3-8,76.5,69.8,65.7,68.0,65.6,63.3,95,87,75,30.02,29.89,21,7,0,0.00
2013-3-9,78.3,70.8,67.6,69.1,67.3,65.6,96,89,73,29.90,29.55,17,7,0,0.00
2013-3-10,79.7,70.1,60.6,69.4,55.5,36.7,99,66,29,29.97,29.48,12,6,0,0.09
2013-3-11,75.2,63.2,52.0,43.8,32.2,22.3,64,35,14,30.06,29.87,14,5,0,0.00
2013-3-12,79.5,60.6,42.6,54.1,46.6,40.3,94,65,33,30.14,29.97,11,3,0,0.00
2013-3-13,75.2,62.6,48.7,59.6,54.3,48.4,99,77,49,30.30,30.12,9,3,0,0.00
2013-3-14,80.1,64.9,48.2,62.3,55.9,47.9,99,76,47,30.28,30.14,14,4,0,0.00
2013-3-15,81.3,67.7,54.7,63.3,59.6,54.4,99,78,49,30.17,29.93,16,5,0,0.00
2013-3-16,82.0,70.1,63.3,66.9,64.4,60.8,99,83,60,29.94,29.67,14,6,0,0.00
2013-3-17,86.0,73.2,65.3,71.0,68.0,65.0,99,85,61,29.72,29.52,12,6,0,0.00
2013-3-18,88.2,75.2,68.4,70.7,69.1,66.9,99,83,56,29.77,29.58,8,4,0,0.00
2013-3-19,84.7,72.1,66.2,70.2,68.0,61.9,99,88,62,29.87,29.68,11,5,0,0.00
2013-3-20,79.3,70.2,63.0,69.4,60.0,50.0,98,72,52,30.02,29.78,15,6,0,0.00
2013-3-21,76.6,69.4,61.9,67.8,63.0,58.0,95,81,60,29.95,29.53,11,4,0,0.00
2013-3-22,83.1,73.9,70.0,73.5,70.6,67.9,97,90,73,29.61,29.49,10,5,0,0.00
2013-3-23,84.7,74.4,66.7,73.3,70.5,66.3,99,89,62,29.60,29.43,8,3,0,0.00
2013-3-24,70.7,64.8,56.5,67.2,43.2,21.2,99,55,16,30.04,29.55,14,6,0,0.00
2013-3-25,66.6,56.1,45.9,35.6,31.9,26.1,64,41,22,30.25,30.02,9,5,0,0.00
2013-3-26,69.3,59.3,51.4,40.3,35.5,28.3,60,42,26,30.36,30.22,12,5,0,0.00
2013-3-27,71.4,61.0,46.6,59.0,49.4,38.5,87,66,50,30.26,30.08,14,4,0,0.00
2013-3-28,76.5,68.8,64.2,63.6,61.3,58.4,91,78,62,30.10,30.00,13,6,0,0.00
2013-3-29,81.1,71.2,63.0,66.4,64.3,61.8,96,80,59,30.07,29.93,17,6,0,0.00
2013-3-30,84.9,72.7,66.0,70.7,67.4,64.4,96,85,60,29.98,29.80,14,5,0,0.00
2013-3-31,86.2,74.4,68.0,72.4,69.5,67.3,98,86,63,29.85,29.65,13,5,0,0.00
2013-4-1,80.2,71.8,64.4,71.3,68.9,64.1,99,91,72,29.90,29.79,12,4,0,0.00
2013-4-2,82.2,73.5,69.4,73.5,70.8,69.1,99,92,74,29.89,29.64,10,5,0,0.01
2013-4-3,78.4,67.5,56.7,70.8,62.1,51.9,99,84,62,30.02,29.69,12,5,0,0.01
2013-4-4,78.8,63.4,54.7,52.5,49.4,45.6,87,64,33,30.08,29.92,10,5,0,0.00
2013-4-5,73.8,60.2,48.7,57.1,50.9,45.5,90,73,47,30.17,29.97,11,4,0,0.00
2013-4-6,81.3,70.2,59.9,63.7,61.2,57.0,93,75,52,29.98,29.76,13,5,0,0.00
2013-4-7,83.3,71.8,65.1,67.4,65.5,63.6,96,82,58,29.83,29.67,14,6,0,0.00
2013-4-8,82.8,74.0,69.4,71.8,70.0,67.4,97,88,69,29.72,29.52,16,8,0,0.00
2013-4-9,86.9,76.4,70.3,74.3,71.8,69.3,97,87,64,29.62,29.43,17,8,0,0.00
2013-4-10,88.2,69.8,58.8,75.8,64.8,50.9,97,85,61,29.72,29.50,16,7,0,0.00
2013-4-11,75.7,60.6,48.6,52.6,47.0,41.4,95,65,34,29.86,29.66,13,6,0,0.25
2013-4-12,79.9,63.8,48.7,63.0,57.1,48.2,99,81,54,29.86,29.74,12,4,0,0.00
2013-4-13,81.3,70.4,62.4,66.0,63.6,60.6,99,81,56,29.84,29.60,14,5,0,0.00
2013-4-14,91.8,76.1,65.8,73.9,69.8,64.9,99,83,53,29.69,29.53,15,4,0,0.00
2013-4-15,87.8,77.5,71.1,72.7,71.4,69.6,98,83,60,29.72,29.55,14,7,0,0.00
2013-4-16,80.8,75.4,72.9,74.8,72.9,71.1,99,92,79,29.78,29.63,14,6,0,0.00
2013-4-17,84.0,76.5,73.2,76.7,74.4,72.9,99,94,77,29.76,29.51,14,6,0,0.00
2013-4-18,83.7,70.2,59.7,77.2,64.8,48.7,99,84,58,29.94,29.50,14,6,0,0.00
2013-4-19,76.6,61.2,51.1,48.7,40.0,31.6,80,49,20,30.21,29.94,13,4,0,0.00
2013-4-20,77.5,62.5,45.0,55.6,47.7,42.7,96,64,32,30.12,29.91,14,4,0,0.00
2013-4-21,86.2,71.5,58.5,65.3,60.0,55.0,92,69,41,29.99,29.87,12,4,0,0.00
2013-4-22,87.8,74.0,66.2,68.5,66.8,64.2,96,80,52,29.98,29.78,12,4,0,0.00
2013-4-23,86.0,74.4,68.9,72.8,70.4,68.0,98,88,65,29.85,29.68,16,6,0,0.00
2013-4-24,73.9,58.8,50.5,72.7,53.6,47.8,99,84,68,30.10,29.84,14,5,0,0.03
2013-4-25,66.9,63.3,60.8,66.6,57.3,50.9,99,82,63,30.16,30.02,9,4,0,0.23
2013-4-26,80.4,73.5,67.3,73.9,71.3,67.0,99,93,80,30.07,29.89,14,5,0,0.01
2013-4-27,83.7,75.8,72.1,74.5,72.2,71.3,99,89,73,29.99,29.78,13,5,0,0.00
2013-4-28,79.2,71.7,66.2,72.5,69.4,65.5,99,93,80,29.93,29.71,19,3,0,0.40
2013-4-29,86.2,73.7,66.6,73.3,70.1,66.3,99,90,62,29.85,29.64,8,3,0,0.87
2013-4-30,87.8,74.9,63.7,74.3,70.1,63.4,99,86,62,29.73,29.57,11,4,0,0.41
2013-5-1,89.8,78.3,71.2,75.4,72.5,70.8,99,84,59,29.80,29.63,10,4,0,0.00
2013-5-2,80.4,70.0,55.4,71.7,62.1,44.2,98,77,58,30.18,29.73,21,6,0,0.01
2013-5-3,73.4,61.3,52.2,44.0,34.0,29.3,66,39,20,30.22,29.97,16,7,0,0.00
2013-5-4,86.7,65.2,46.8,55.2,44.9,34.2,90,54,17,30.02,29.77,10,3,0,0.00
2013-5-5,87.4,69.9,52.5,60.7,56.4,50.2,96,66,33,29.98,29.84,8,2,0,0.00
2013-5-6,84.7,69.2,55.6,63.6,58.4,54.4,99,72,42,30.00,29.84,10,3,0,0.00
2013-5-7,86.2,72.3,58.5,67.0,62.5,57.1,99,74,48,29.96,29.82,14,3,0,0.00
2013-5-8,87.3,76.0,68.7,71.1,69.1,66.6,95,81,57,29.90,29.77,16,6,0,0.00
2013-5-9,81.5,77.0,73.6,75.6,73.7,71.1,96,90,81,29.86,29.68,11,5,0,0.00
2013-5-10,82.6,75.6,72.7,77.4,73.6,69.3,99,94,82,29.85,29.70,8,3,0,0.04
2013-5-11,91.4,78.0,69.6,71.5,69.0,66.7,99,77,45,30.00,29.81,9,4,0,0.32
2013-5-12,80.1,72.0,64.9,71.4,64.7,58.3,95,79,62,30.08,29.93,10,3,0,0.25
2013-5-13,86.5,73.7,60.6,69.4,64.1,59.7,99,75,45,30.14,30.04,10,3,0,0.00
2013-5-14,89.6,77.3,69.3,72.8,69.9,65.7,91,79,55,30.13,29.93,12,5,0,0.00
2013-5-15,81.1,76.2,73.0,74.8,72.6,70.6,98,89,80,30.02,29.75,12,6,0,0.14
2013-5-16,89.6,79.5,72.7,77.6,73.7,70.2,93,83,68,29.79,29.61,14,6,0,0.00
2013-5-17,92.1,81.2,73.8,77.8,74.2,70.8,93,81,52,29.81,29.67,16,6,0,0.00
2013-5-18,90.9,81.3,76.1,76.2,74.0,72.1,93,80,56,29.81,29.70,14,6,0,0.00
2013-5-19,90.1,81.4,76.3,76.7,74.7,73.2,92,81,61,29.79,29.61,19,7,0,0.01
2013-5-20,90.3,81.2,76.6,77.6,75.1,73.5,92,83,65,29.71,29.59,17,7,0,0.00
2013-5-21,90.7,81.6,76.8,78.2,75.8,74.0,93,83,66,29.69,29.56,13,6,0,0.00
2013-5-22,89.2,81.7,77.2,77.6,75.9,74.4,95,83,68,29.79,29.66,11,4,0,0.00
2013-5-23,91.4,82.0,76.6,79.3,76.1,74.1,93,83,68,29.89,29.74,14,5,0,0.00
2013-5-24,92.1,82.0,77.2,77.6,75.3,70.2,90,81,61,29.95,29.84,17,6,0,0.00
2013-5-25,85.5,80.1,76.1,76.8,74.9,70.9,92,84,75,29.96,29.87,14,7,0,0.26
2013-5-26,91.9,81.8,77.2,75.3,73.2,71.8,87,76,56,29.96,29.84,15,6,0,0.00
2013-5-27,91.8,82.5,77.0,76.5,74.1,72.3,88,77,58,29.92,29.74,16,7,0,0.00
2013-5-28,90.5,82.4,78.6,76.7,74.3,72.9,85,77,64,29.82,29.65,19,7,0,0.00
2013-5-29,86.7,81.4,78.6,76.1,74.3,73.2,85,79,70,29.75,29.59,17,7,0,0.00
2013-5-30,95.0,83.7,78.3,78.0,75.3,73.5,86,77,58,29.71,29.62,14,6,0,0.00
2013-5-31,96.8,85.0,78.6,79.0,76.1,74.4,89,76,57,29.75,29.63,14,6,0,0.00
2013-6-1,96.6,85.5,79.9,79.1,75.9,73.9,84,74,57,29.75,29.64,14,7,0,0.00
2013-6-2,93.7,82.6,73.9,77.9,74.4,69.9,93,77,54,29.88,29.71,12,3,0,1.19
2013-6-3,95.7,82.1,71.1,75.6,72.2,69.3,95,74,50,29.84,29.70,11,2,0,0.00
2013-6-4,96.1,81.8,69.8,74.9,71.3,67.7,96,73,47,29.79,29.68,10,2,0,0.00
2013-6-5,97.2,83.5,71.6,76.1,73.0,68.7,94,73,48,29.77,29.65,11,3,0,0.00
2013-6-6,98.4,85.3,74.5,77.2,74.6,72.3,95,73,48,29.75,29.61,7,2,0,0.00
2013-6-7,92.7,80.4,70.0,76.7,73.4,66.9,94,80,60,29.80,29.69,14,2,0,0.86
2013-6-8,95.7,79.4,69.3,77.7,72.8,67.5,96,82,54,29.80,29.66,12,3,0,0.03
2013-6-9,98.6,85.9,77.7,79.7,76.0,73.9,94,74,50,29.82,29.68,13,4,0,0.76
2013-6-10,97.7,84.7,75.6,78.7,75.1,71.9,94,74,53,29.85,29.76,12,3,0,0.00
2013-6-11,96.3,85.2,76.3,78.3,74.8,71.0,89,72,54,29.90,29.82,13,4,0,0.00
2013-6-12,97.0,86.1,79.2,79.1,75.9,73.7,90,73,50,29.92,29.82,9,4,0,0.05
2013-6-13,94.1,83.9,80.4,79.1,76.2,74.4,85,78,62,29.91,29.78,10,4,0,0.01
2013-6-14,94.1,84.3,80.1,79.7,76.7,74.9,87,78,63,29.85,29.74,14,5,0,0.00
2013-6-15,99.0,86.8,79.3,77.4,75.5,73.4,86,71,46,29.86,29.75,13,5,0,0.00
2013-6-16,96.3,85.4,78.8,79.8,76.1,73.9,86,74,59,29.88,29.78,15,5,0,0.00
2013-6-17,97.9,86.5,79.7,79.4,76.3,74.1,87,73,54,29.87,29.74,13,5,0,0.00
2013-6-18,98.6,86.2,76.5,77.7,75.6,73.6,92,72,49,29.87,29.74,12,4,0,0.00
2013-6-19,97.5,85.7,77.9,77.0,74.9,73.7,88,72,50,29.90,29.77,16,5,0,0.00
2013-6-20,96.3,85.7,77.7,78.0,76.1,74.2,91,74,54,29.92,29.84,14,5,0,0.00
2013-6-21,97.7,85.8,78.4,77.4,75.5,74.2,87,73,50,29.94,29.86,16,5,0,0.00
2013-6-22,97.9,86.2,78.1,76.7,75.0,72.0,90,71,45,29.91,29.79,12,5,0,0.00
2013-6-23,96.4,85.7,77.4,76.7,74.7,72.8,87,71,48,29.88,29.77,17,5,0,0.00
2013-6-24,96.1,86.2,79.7,77.2,75.6,74.0,86,72,52,29.89,29.79,17,6,0,0.00
2013-6-25,95.4,85.3,79.0,77.2,75.5,74.2,86,74,55,29.90,29.77,21,6,0,0.00
2013-6-26,98.2,86.2,79.3,79.6,76.2,74.4,88,74,49,29.87,29.77,15,6,0,0.00
2013-6-27,98.2,85.4,76.6,77.5,75.4,73.4,91,74,49,29.88,29.79,12,4,0,0.00
2013-6-28,100.9,86.7,76.3,77.5,74.5,68.8,94,70,42,29.89,29.70,12,4,0,0.00
2013-6-29,106.9,89.3,77.0,76.6,72.8,69.2,87,62,32,29.76,29.59,10,4,0,0.00
2013-6-30,91.2,80.2,72.0,73.5,70.1,67.8,93,72,52,29.84,29.64,14,3,0,0.71
2013-7-1,100.2,84.5,72.5,74.7,69.7,64.2,92,65,34,29.86,29.72,8,2,0,0.00
2013-7-2,98.8,85.9,77.4,73.9,67.5,62.2,82,57,31,29.90,29.79,8,2,0,0.00
2013-7-3,96.6,82.1,71.6,71.8,68.8,62.7,83,66,33,29.90,29.76,10,3,0,0.00
2013-7-4,97.9,83.4,71.1,75.2,71.3,68.7,93,70,42,29.87,29.76,11,3,0,0.00
2013-7-5,97.5,84.6,73.2,75.2,72.3,70.4,94,69,44,29.85,29.70,12,3,0,0.00
2013-7-6,95.9,83.4,74.3,78.1,74.4,70.7,94,76,56,29.80,29.70,12,3,0,0.00
2013-7-7,98.6,84.8,76.6,78.0,74.2,71.0,92,72,46,29.87,29.74,12,4,0,0.00
2013-7-8,95.2,84.3,74.3,78.0,75.2,69.8,93,75,55,29.98,29.83,11,5,0,0.22
2013-7-9,98.4,86.7,76.8,78.3,76.0,74.2,95,73,50,29.97,29.85,14,4,0,0.00
2013-7-10,98.2,86.2,76.8,77.2,75.2,73.6,92,71,50,29.94,29.79,14,4,0,0.00
2013-7-11,99.5,86.2,76.5,76.3,74.1,72.4,90,69,43,29.89,29.74,11,4,0,0.00
2013-7-12,98.2,85.4,75.7,75.5,73.6,71.7,92,70,46,29.83,29.73,11,4,0,0.00
2013-7-13,100.9,86.4,74.8,76.1,72.8,70.6,92,67,40,29.81,29.70,9,3,0,0.00
2013-7-14,99.3,85.7,75.2,76.3,73.7,71.5,91,69,43,29.79,29.67,13,4,0,0.00
2013-7-15,94.1,85.1,79.2,77.1,74.7,72.5,83,72,57,29.85,29.71,14,5,0,0.00
2013-7-16,93.4,81.1,75.6,77.3,74.1,70.8,93,80,59,29.93,29.79,15,4,0,0.90
2013-7-17,78.3,75.6,72.9,76.4,73.5,70.8,96,94,89,29.98,29.88,5,1,0,3.32
2013-7-18,95.0,81.9,74.3,77.1,74.7,72.6,97,81,55,29.99,29.81,12,2,0,0.15
2013-7-19,96.3,84.2,74.5,78.6,74.3,71.6,96,74,51,29.93,29.74,13,3,0,0.02
2013-7-20,94.5,84.0,75.9,78.4,74.9,72.3,92,75,55,29.86,29.69,12,3,0,0.01
2013-7-21,95.4,85.5,79.0,79.8,76.8,74.9,90,76,59,29.84,29.72,14,4,0,0.04
2013-7-22,95.7,86.9,81.3,80.0,77.2,75.5,83,74,58,29.86,29.73,14,6,0,0.00
2013-7-23,97.3,86.3,79.2,79.2,76.1,73.5,83,72,56,29.87,29.74,14,6,0,0.00
2013-7-24,98.1,86.3,79.3,78.9,76.0,73.5,87,73,52,29.84,29.70,12,4,0,0.00
2013-7-25,98.6,86.4,77.0,80.2,76.4,72.9,94,74,53,29.89,29.80,11,4,0,0.00
2013-7-26,97.3,85.8,78.4,80.9,76.7,74.4,89,75,59,29.90,29.73,14,5,0,0.00
2013-7-27,99.0,86.6,78.8,79.5,75.9,74.4,87,72,51,29.84,29.66,12,4,0,0.00
2013-7-28,96.4,86.2,78.6,78.6,76.6,75.0,90,74,57,29.81,29.69,17,6,0,0.00
2013-7-29,95.4,85.4,79.5,78.2,76.2,75.0,88,75,58,29.93,29.80,14,6,0,0.00
2013-7-30,96.4,85.7,79.2,79.2,76.6,74.5,89,75,56,29.96,29.82,19,6,0,0.00
2013-7-31,99.0,86.0,75.9,78.4,75.8,72.8,91,73,51,29.95,29.80,12,4,0,0.00
2013-8-1,100.0,87.4,76.3,77.7,74.5,71.0,93,69,43,29.89,29.76,11,4,0,0.00
2013-8-2,99.1,86.0,76.3,77.4,74.4,71.3,93,71,45,29.84,29.72,10,4,0,0.00
2013-8-3,99.1,86.4,77.7,78.5,76.0,72.2,91,73,51,29.86,29.77,18,5,0,0.00
2013-8-4,97.7,87.1,79.9,79.2,76.1,73.9,88,71,52,29.89,29.79,12,5,0,0.00
2013-8-5,98.1,86.7,79.3,78.4,76.1,75.0,89,72,51,29.89,29.74,14,5,0,0.00
2013-8-6,98.4,86.8,79.7,78.8,76.4,75.3,88,73,51,29.80,29.67,16,6,0,0.00
2013-8-7,99.3,86.3,78.6,78.6,76.1,74.6,88,73,51,29.77,29.65,13,6,0,0.00
2013-8-8,99.0,86.1,78.4,79.6,76.3,74.2,88,74,54,29.77,29.65,17,5,0,0.00
2013-8-9,99.3,86.3,76.6,78.4,75.9,73.9,94,74,47,29.84,29.71,14,4,0,0.00
2013-8-10,99.1,86.6,78.3,80.9,77.0,75.0,95,75,50,29.86,29.77,10,3,0,0.00
2013-8-11,99.9,86.0,76.8,79.4,75.4,72.8,91,72,47,29.91,29.80,12,3,0,0.00
2013-8-12,99.3,86.1,76.3,78.0,75.3,73.3,93,72,48,29.92,29.80,16,4,0,0.00
2013-8-13,100.2,87.5,78.4,77.9,75.9,74.1,90,71,47,29.90,29.73,14,5,0,0.00
2013-8-14,103.1,86.5,77.0,78.2,74.6,70.1,94,71,39,29.84,29.73,10,4,0,0.00
2013-8-15,97.5,84.7,75.0,78.5,74.9,71.9,93,74,46,29.85,29.72,8,3,0,0.00
2013-8-16,100.4,87.2,79.0,79.0,75.8,72.2,90,71,42,29.87,29.71,13,3,0,0.00
2013-8-17,98.8,84.9,75.4,75.5,72.4,68.9,86,68,45,29.87,29.72,14,4,0,0.00
2013-8-18,99.0,85.0,74.3,76.4,70.4,64.2,93,65,38,29.88,29.77,10,3,0,0.00
2013-8-19,97.0,83.8,71.4,75.9,70.9,65.8,89,67,42,29.86,29.74,11,3,0,0.00
2013-8-20,85.3,79.1,74.8,76.0,73.6,71.3,95,84,74,29.88,29.77,8,2,0,0.35
2013-8-21,97.2,85.5,77.2,79.8,76.3,74.0,97,75,54,29.89,29.81,11,3,0,0.03
2013-8-22,97.2,85.2,76.6,79.7,75.6,73.5,94,74,47,29.89,29.75,10,2,0,0.00
2013-8-23,95.0,84.2,76.1,79.7,75.3,73.3,94,76,52,29.85,29.71,9,2,0,0.14
2013-8-24,96.1,85.8,76.1,79.7,76.2,73.1,93,74,52,29.86,29.75,14,4,0,0.00
2013-8-25,96.8,85.9,77.4,78.4,75.8,73.4,90,73,50,29.90,29.77,11,4,0,0.00
2013-8-26,92.8,79.4,75.2,78.8,75.3,73.3,96,88,64,29.92,29.83,11,2,0,0.82
2013-8-27,93.6,83.5,73.9,81.3,76.4,70.3,98,80,58,29.92,29.84,12,3,0,0.19
2013-8-28,96.3,84.5,73.8,78.9,75.1,72.1,97,75,53,29.92,29.81,10,3,0,0.00
2013-8-29,99.5,85.9,75.7,78.9,74.8,72.3,96,72,44,29.91,29.79,8,2,0,0.00
2013-8-30,100.0,85.9,75.4,77.7,73.4,70.5,92,69,39,29.88,29.72,12,2,0,0.00
2013-8-31,98.6,85.6,74.3,77.6,73.1,70.2,91,69,41,29.78,29.66,11,3,0,0.00
2013-9-1,99.9,86.5,74.8,78.4,74.9,71.5,94,71,45,29.76,29.64,12,4,0,0.00
2013-9-2,99.7,87.0,76.6,78.5,75.5,72.6,92,71,46,29.81,29.70,12,3,0,0.00
2013-9-3,101.1,86.3,75.7,77.1,74.4,71.6,93,70,43,29.83,29.73,9,2,0,0.00
2013-9-4,98.2,85.5,75.6,78.1,74.2,70.9,92,71,42,29.90,29.77,10,3,0,0.00
2013-9-5,97.7,85.5,77.2,78.3,75.2,73.4,89,73,50,29.92,29.80,13,3,0,0.01
2013-9-6,95.0,84.5,76.6,79.2,75.2,72.0,91,75,55,29.91,29.78,9,3,0,0.00
2013-9-7,97.5,82.3,74.8,80.2,75.2,72.6,97,80,52,29.86,29.72,8,2,0,0.45
2013-9-8,90.3,78.7,73.0,80.9,75.0,71.5,98,89,74,29.82,29.70,8,2,0,2.63
2013-9-9,93.2,81.6,74.8,78.8,75.1,72.3,97,82,56,29.82,29.69,14,4,0,0.47
2013-9-10,92.3,79.6,74.5,80.3,75.2,72.8,98,87,63,29.88,29.77,10,2,0,1.67
2013-9-11,91.6,80.6,74.5,80.6,76.4,73.6,99,88,67,29.91,29.78,12,2,0,0.01
2013-9-12,93.7,83.0,74.3,81.5,75.7,73.1,99,80,55,29.87,29.71,7,2,0,0.16
2013-9-13,91.9,82.8,75.6,79.5,76.0,72.9,96,81,64,29.80,29.63,8,2,0,0.00
2013-9-14,93.6,84.5,77.4,80.7,76.4,73.9,93,78,57,29.74,29.64,8,3,0,0.03
2013-9-15,92.1,84.4,79.9,79.6,76.7,75.2,90,78,62,29.80,29.68,14,5,0,0.09
2013-9-16,90.0,80.8,75.9,81.0,77.3,73.7,99,90,75,29.84,29.72,14,4,0,1.62
2013-9-17,93.0,83.7,78.3,81.3,77.5,73.7,95,82,65,29.85,29.72,10,3,0,0.04
2013-9-18,91.2,82.6,76.3,80.2,77.5,73.8,99,86,67,29.83,29.68,14,3,0,0.12
2013-9-19,94.6,84.0,75.6,80.9,77.5,75.0,99,82,60,29.78,29.62,12,4,0,0.01
2013-9-20,94.1,82.6,76.3,82.3,79.1,75.1,99,89,69,29.70,29.53,8,3,0,0.32
2013-9-21,79.0,76.1,73.6,75.8,72.8,69.2,99,90,78,29.69,29.56,9,5,0,0.84
2013-9-22,88.7,77.9,68.7,70.3,65.1,57.6,89,68,37,29.70,29.56,10,3,0,0.00
2013-9-23,91.8,77.0,68.0,75.8,70.0,62.3,97,80,59,29.70,29.55,6,2,0,0.00
2013-9-24,96.1,82.8,71.6,74.7,70.9,67.2,93,71,41,29.76,29.65,6,2,0,0.00
2013-9-25,98.8,83.2,71.1,74.6,70.2,60.0,96,70,29,29.76,29.64,8,2,0,0.00
2013-9-26,95.9,82.4,72.5,80.0,74.4,71.7,99,79,48,29.76,29.66,11,3,0,0.00
2013-9-27,94.5,85.2,79.7,80.6,78.0,74.6,89,80,63,29.77,29.66,11,5,0,0.04
2013-9-28,94.1,85.9,80.4,80.2,78.1,76.1,88,78,62,29.84,29.71,10,5,0,0.00
2013-9-29,93.9,80.7,74.7,78.9,75.6,73.7,99,86,56,29.88,29.73,6,2,0,1.26
2013-9-30,90.7,80.6,73.6,80.0,76.8,73.3,99,89,69,29.82,29.65,7,2,0,0.00
2013-10-1,94.1,84.0,77.9,81.1,77.6,74.9,96,82,61,29.79,29.66,10,4,0,0.00
2013-10-2,94.6,84.1,75.2,79.3,76.1,73.2,99,78,54,29.81,29.71,10,4,0,0.09
2013-10-3,94.8,83.8,74.8,80.0,75.0,72.5,99,76,54,29.81,29.70,11,3,0,0.00
2013-10-4,93.4,82.8,75.7,78.2,75.2,72.4,94,79,59,29.78,29.68,13,3,0,0.00
2013-10-5,93.7,82.5,72.1,79.8,75.6,71.5,99,81,59,29.79,29.69,9,3,0,0.00
2013-10-6,79.9,70.6,59.5,77.2,56.5,46.5,96,64,32,30.00,29.77,10,4,0,0.05
2013-10-7,87.1,71.1,58.8,55.8,49.1,41.3,84,50,21,30.03,29.90,7,2,0,0.00
2013-10-8,88.3,70.9,56.7,60.0,56.7,53.5,91,65,35,29.97,29.85,8,1,0,0.00
2013-10-9,88.7,74.9,62.1,70.3,64.2,59.1,99,73,45,29.90,29.80,11,3,0,0.00
2013-10-10,91.4,79.8,69.3,72.1,68.9,64.9,91,71,51,29.90,29.75,13,4,0,0.00
2013-10-11,92.5,83.4,78.6,79.1,76.1,71.8,91,79,61,29.80,29.68,10,5,0,0.00
2013-10-12,93.6,84.2,78.6,82.4,79.0,77.6,99,85,64,29.89,29.76,14,4,0,0.00
2013-10-13,91.9,82.4,77.4,80.2,76.5,73.5,97,83,59,29.97,29.83,11,4,0,0.00
2013-10-14,87.1,80.8,77.5,76.9,74.4,72.0,90,81,67,29.95,29.77,13,3,0,0.06
2013-10-15,90.9,81.4,74.1,75.3,72.2,70.7,96,75,55,29.86,29.71,11,3,0,0.00
2013-10-16,83.5,76.0,66.2,78.2,70.1,61.6,99,83,68,29.94,29.76,7,3,0,0.00
2013-10-17,81.0,70.9,64.9,64.6,61.2,57.6,87,72,53,29.97,29.81,7,3,0,0.00
2013-10-18,86.5,75.9,70.9,79.6,72.9,65.1,99,91,77,29.87,29.65,7,2,0,0.54
2013-10-19,75.6,68.6,61.9,75.1,59.3,45.4,99,75,38,30.01,29.78,9,4,0,0.14
2013-10-20,80.6,67.2,51.6,66.8,58.0,46.2,92,73,60,29.98,29.77,7,2,0,0.00
2013-10-21,85.8,74.0,67.6,77.2,70.7,63.6,99,90,71,29.85,29.70,7,2,0,1.73
2013-10-22,82.0,70.6,59.0,69.9,61.0,46.3,99,75,44,30.02,29.84,9,4,0,0.00
2013-10-23,83.3,65.8,51.4,57.1,48.6,38.8,97,61,22,30.06,29.96,4,1,0,0.00
2013-10-24,84.9,68.4,53.4,67.5,58.9,51.6,99,75,45,30.10,29.99,7,1,0,0.00
2013-10-25,84.7,73.1,60.6,74.4,65.3,60.3,99,78,58,30.15,30.03,14,3,0,0.00
2013-10-26,86.9,77.2,68.5,70.3,67.7,64.2,89,73,53,30.08,29.93,16,4,0,0.00
2013-10-27,89.1,76.5,65.3,77.4,69.6,65.0,99,81,53,29.96,29.83,8,2,0,0.00
2013-10-28,86.7,77.6,68.7,78.1,73.6,68.4,99,88,71,29.94,29.84,10,4,0,0.00
2013-10-29,87.1,80.1,75.7,77.8,75.8,74.2,97,87,73,29.96,29.82,14,6,0,0.00
2013-10-30,88.7,81.5,77.7,80.3,78.6,77.3,99,91,75,29.90,29.68,13,6,0,0.00
2013-10-31,89.2,81.2,75.9,82.0,75.8,66.3,99,85,49,29.79,29.62,10,3,0,1.04
2013-11-1,87.6,77.5,67.3,73.1,69.6,64.0,99,78,56,29.88,29.67,7,2,0,0.00
2013-11-2,80.2,70.6,62.8,71.2,43.1,32.1,97,40,18,30.12,29.89,10,5,0,0.00
2013-11-3,79.9,68.1,58.6,56.9,52.1,44.4,81,58,37,30.12,29.88,10,2,0,0.00
2013-11-4,81.0,70.5,59.2,68.2,63.1,55.3,97,79,54,29.94,29.78,7,2,0,0.00
2013-11-5,85.1,75.7,66.0,77.2,72.3,65.2,99,90,76,29.87,29.76,12,4,0,0.00
2013-11-6,90.3,75.4,59.7,78.4,70.1,53.9,99,85,49,30.14,29.83,12,4,0,0.48
2013-11-7,69.6,61.4,55.8,53.2,42.9,36.1,79,53,30,30.28,30.13,11,5,0,0.00
2013-11-8,70.9,65.4,57.6,58.3,54.4,42.5,92,68,52,30.24,30.03,9,3,0,0.00
2013-11-9,77.9,68.2,58.6,68.1,63.9,57.2,99,87,69,30.04,29.95,8,2,0,0.00
2013-11-10,73.0,68.3,64.0,68.1,62.4,54.1,99,83,55,30.13,30.02,6,2,0,0.00
2013-11-11,75.6,69.4,63.9,65.1,61.0,55.9,95,75,66,30.12,29.99,6,2,0,0.00
2013-11-12,75.2,65.2,56.7,65.1,56.5,46.3,98,75,52,30.45,30.07,12,5,0,0.00
2013-11-13,58.5,50.3,42.6,46.3,36.6,31.1,78,60,36,30.50,30.30,9,3,0,0.00
2013-11-14,66.9,57.0,43.2,58.9,49.8,37.5,99,77,63,30.29,29.91,7,1,0,0.00
2013-11-15,81.3,66.3,53.8,67.8,61.8,53.5,99,87,58,29.92,29.75,9,2,0,0.00
2013-11-16,81.1,73.9,65.8,77.9,72.9,65.5,99,97,89,29.81,29.64,11,3,0,0.00
2013-11-17,85.3,76.5,72.1,78.4,74.6,71.8,99,94,78,29.82,29.67,8,3,0,0.00
2013-11-18,83.7,74.7,69.3,78.7,73.3,68.8,99,96,83,29.94,29.80,6,2,0,0.00
2013-11-19,72.9,69.5,67.6,68.5,66.3,64.2,97,90,82,29.95,29.84,9,4,0,0.00
2013-11-20,83.8,74.5,68.0,77.8,72.7,67.4,99,94,77,29.87,29.70,10,4,0,0.00
2013-11-21,84.0,77.5,73.0,79.5,76.1,72.7,99,96,85,29.93,29.78,12,5,0,0.00
2013-11-22,77.4,58.7,42.1,77.1,58.4,41.8,99,99,99,30.21,29.89,12,4,0,0.78
2013-11-23,47.3,43.9,40.5,45.9,43.2,40.2,99,98,92,30.30,30.19,11,6,0,0.00
2013-11-24,47.5,45.3,42.8,45.9,43.9,40.6,99,95,87,30.31,30.19,9,5,0,0.16
2013-11-25,46.6,43.2,40.6,46.3,42.6,40.3,99,98,91,30.18,29.91,10,5,0,0.46
2013-11-26,50.9,44.5,38.1,42.9,40.4,37.8,99,86,65,30.26,30.01,15,6,0,0.09
2013-11-27,54.3,43.3,33.6,38.2,32.6,26.3,99,69,34,30.38,30.24,10,3,0,0.00
2013-11-28,59.9,47.9,0.0,50.9,40.8,-20.0,99,79,37,30.33,30.22,7,2,0,0.00
2013-11-29,67.8,57.0,48.2,61.4,54.9,47.9,99,93,80,30.33,30.22,8,3,0,0.00
2013-11-30,76.1,66.3,54.5,66.3,60.8,54.2,99,84,65,30.27,30.08,9,3,0,0.00
2013-12-1,77.7,66.9,55.0,67.9,63.1,54.7,99,88,69,30.09,29.87,6,2,0,0.00
2013-12-2,80.6,66.7,56.7,70.2,63.4,56.4,99,90,60,29.88,29.60,6,2,0,0.00
2013-12-3,82.2,69.7,61.7,72.2,66.8,61.4,99,92,68,29.64,29.50,7,3,0,0.00
2013-12-4,81.3,72.8,66.7,74.7,71.1,66.4,99,95,80,29.70,29.55,10,4,0,0.00
2013-12-5,82.4,64.8,43.3,76.0,62.8,40.9,99,93,81,29.90,29.66,12,4,0,0.00
2013-12-6,49.6,42.0,36.5,41.7,37.6,31.8,95,85,74,30.28,29.89,14,6,0,0.00
2013-12-7,36.7,35.6,34.7,33.1,31.8,30.3,93,86,81,30.34,30.18,8,5,0,0.00
2013-12-8,50.4,42.6,34.9,47.5,40.0,33.1,99,91,75,30.19,29.94,6,3,0,0.00
2013-12-9,54.1,48.8,42.4,53.8,48.5,42.1,99,99,99,30.19,29.89,10,4,0,0.05
2013-12-10,50.0,43.6,37.8,41.6,33.3,28.6,99,69,46,30.38,30.20,11,4,0,0.00
2013-12-11,54.7,50.5,46.0,42.8,38.5,32.5,69,63,57,30.38,30.20,5,2,0,0.00
2013-12-12,59.5,51.9,46.6,41.0,38.6,36.6,74,61,45,30.45,30.23,8,3,0,0.00
2013-12-13,71.4,58.3,47.1,61.1,49.8,38.7,90,74,63,30.23,29.76,7,2,0,0.00
2013-12-14,71.2,58.7,46.6,57.2,46.7,37.3,97,67,34,30.22,29.77,12,5,0,0.00
2013-12-15,60.1,46.2,35.8,38.0,33.8,30.4,96,65,33,30.34,30.19,7,2,0,0.00
2013-12-16,66.2,47.9,31.6,48.3,38.9,31.4,99,77,35,30.26,30.11,10,1,0,0.00
2013-12-17,71.8,54.2,38.3,58.5,49.6,38.0,99,86,56,30.22,30.12,10,1,0,0.00
2013-12-18,74.3,60.3,45.1,63.3,53.6,44.8,99,81,52,30.18,29.98,9,3,0,0.00
2013-12-19,77.2,69.2,63.0,67.6,64.0,58.0,99,84,68,29.97,29.69,14,5,0,0.00
2013-12-20,79.9,71.8,66.9,74.8,70.4,66.6,99,96,84,29.74,29.54,12,6,0,0.00
2013-12-21,81.0,71.1,61.3,75.1,66.6,56.3,99,87,57,29.70,29.45,16,5,0,0.00
2013-12-22,74.3,63.1,48.9,58.5,47.8,35.2,97,62,27,30.21,29.67,11,4,0,0.00
2013-12-23,60.3,47.4,40.1,38.2,30.9,24.5,84,55,28,30.42,30.22,10,3,0,0.00
2013-12-24,61.7,51.4,38.1,51.1,44.5,33.1,99,78,62,30.43,30.15,6,2,0,0.00
2013-12-25,71.8,57.5,47.3,62.7,55.9,47.0,99,95,73,30.21,30.09,5,2,0,0.02
2013-12-26,57.9,54.7,51.4,57.6,53.2,49.1,99,95,78,30.28,30.17,7,4,0,0.09
2013-12-27,57.9,53.1,50.4,55.6,51.9,50.1,99,96,85,30.30,30.18,5,2,0,0.15
2013-12-28,64.8,53.2,44.6,51.7,42.5,28.4,99,73,28,30.20,29.94,5,1,0,0.00
2013-12-29,69.4,55.3,40.6,54.1,47.6,39.8,99,78,41,30.01,29.88,5,1,0,0.00
2013-12-30,59.0,44.8,42.1,52.8,37.4,33.5,85,75,66,30.29,29.98,13,5,0,0.03
2013-12-31,49.3,44.8,43.0,44.8,37.8,33.3,95,77,63,30.35,30.16,6,2,0,0.04
2014-1-1,57.7,51.7,45.9,57.4,50.5,44.7,99,96,81,30.17,29.90,4,2,0,0.00
2014-1-2,59.2,52.4,41.5,58.9,39.4,25.7,99,65,37,30.35,29.94,12,5,0,0.01